Time;durP1;ratioP1;P1;durP2;ratioP2;P2;SDS_P1;SDS_P2;PMS_P1;PMS_P2;Temp;Humidity;BMP_temperature;BMP_pressure;BME280_temperature;BME280_humidity;BME280_pressure;Samples;Min_cycle;Max_cycle;Signal;HPM_P1;HPM_P2
2023/06/18 00:01:22;;;;;;;4.50;3.63;;;;;;;;;;5118836;28;20199;-82
2023/06/18 00:03:51;;;;;;;3.95;3.65;;;;;;;;;;5117517;28;20581;-82
2023/06/18 00:06:18;;;;;;;3.85;3.55;;;;;;;;;;5117457;28;20308;-82
2023/06/18 00:08:46;;;;;;;3.85;3.55;;;;;;;;;;5116757;28;20310;-82
2023/06/18 00:11:13;;;;;;;3.78;3.47;;;;;;;;;;5116705;28;20199;-82
2023/06/18 00:13:41;;;;;;;3.38;3.08;;;;;;;;;;5110109;28;20702;-82
2023/06/18 00:16:08;;;;;;;4.40;4.00;;;;;;;;;;5118488;28;20287;-82
2023/06/18 00:18:36;;;;;;;3.65;3.35;;;;;;;;;;5118373;28;20319;-83
2023/06/18 00:21:07;;;;;;;4.40;4.00;;;;;;;;;;5118047;28;20287;-82
2023/06/18 00:23:35;;;;;;;4.45;4.13;;;;;;;;;;5118921;28;20818;-83
2023/06/18 00:26:03;;;;;;;4.13;3.78;;;;;;;;;;5117207;28;20680;-83
2023/06/18 00:28:31;;;;;;;5.20;4.75;;;;;;;;;;5116328;28;20283;-83
2023/06/18 00:30:58;;;;;;;5.03;4.28;;;;;;;;;;5115892;28;20200;-83
2023/06/18 00:33:26;;;;;;;4.93;4.53;;;;;;;;;;5116570;28;20251;-83
2023/06/18 00:35:56;;;;;;;5.00;4.60;;;;;;;;;;5116840;28;20210;-82
2023/06/18 00:38:26;;;;;;;4.47;4.07;;;;;;;;;;5117269;28;20231;-83
2023/06/18 00:40:54;;;;;;;4.78;4.38;;;;;;;;;;5117939;28;20591;-82
2023/06/18 00:43:22;;;;;;;5.53;5.13;;;;;;;;;;5116963;28;20195;-82
2023/06/18 00:45:50;;;;;;;5.22;4.72;;;;;;;;;;5116716;28;20287;-83
2023/06/18 00:48:18;;;;;;;4.53;4.13;;;;;;;;;;5116789;28;20206;-82
2023/06/18 00:50:46;;;;;;;4.78;4.38;;;;;;;;;;5117115;28;20207;-83
2023/06/18 00:53:14;;;;;;;4.55;4.18;;;;;;;;;;5117022;28;20219;-82
2023/06/18 00:55:43;;;;;;;5.50;4.82;;;;;;;;;;5117025;28;20668;-82
2023/06/18 00:58:13;;;;;;;5.65;5.15;;;;;;;;;;5115014;28;20732;-82
2023/06/18 01:00:40;;;;;;;4.72;4.32;;;;;;;;;;5116618;28;20648;-82
2023/06/18 01:03:16;;;;;;;5.20;4.80;;;;;;;;;;5116634;28;20195;-82
2023/06/18 01:05:45;;;;;;;4.07;3.67;;;;;;;;;;5116225;28;20195;-82
2023/06/18 01:08:13;;;;;;;3.97;3.67;;;;;;;;;;5116105;28;20248;-82
2023/06/18 01:10:42;;;;;;;4.15;3.85;;;;;;;;;;5116407;28;20708;-81
2023/06/18 01:13:10;;;;;;;10.00;4.50;;;;;;;;;;5115989;28;20373;-82
2023/06/18 01:15:38;;;;;;;4.68;4.28;;;;;;;;;;5115805;28;20262;-82
2023/06/18 01:18:07;;;;;;;4.13;3.78;;;;;;;;;;5115891;28;20196;-82
2023/06/18 01:20:40;;;;;;;4.80;4.43;;;;;;;;;;5116117;28;20654;-82
2023/06/18 01:23:17;;;;;;;4.30;4.00;;;;;;;;;;5116049;28;20683;-82
2023/06/18 01:25:46;;;;;;;5.22;4.32;;;;;;;;;;5116549;28;20219;-82
2023/06/18 01:28:15;;;;;;;4.70;4.30;;;;;;;;;;5116578;28;20195;-83
2023/06/18 01:30:43;;;;;;;4.75;4.35;;;;;;;;;;5112807;28;20196;-83
2023/06/18 01:33:12;;;;;;;4.47;4.07;;;;;;;;;;5096237;28;20353;-83
2023/06/18 01:35:41;;;;;;;4.18;3.88;;;;;;;;;;5094890;28;20188;-82
2023/06/18 01:38:23;;;;;;;4.72;4.32;;;;;;;;;;5095338;28;20196;-83
2023/06/18 01:40:58;;;;;;;4.63;4.22;;;;;;;;;;5095602;28;20645;-83
2023/06/18 01:43:31;;;;;;;3.80;3.50;;;;;;;;;;5103088;28;20282;-83
2023/06/18 01:46:03;;;;;;;4.05;3.75;;;;;;;;;;5117077;28;20184;-83
2023/06/18 01:48:36;;;;;;;4.57;4.20;;;;;;;;;;5115906;28;20314;-81
2023/06/18 01:51:06;;;;;;;4.07;3.78;;;;;;;;;;5115496;28;20532;-82
2023/06/18 01:53:35;;;;;;;3.80;3.50;;;;;;;;;;5115533;28;20581;-83
2023/06/18 01:56:05;;;;;;;3.38;3.17;;;;;;;;;;5115652;28;20199;-82
2023/06/18 01:58:33;;;;;;;3.50;3.30;;;;;;;;;;5114789;28;20679;-82
2023/06/18 02:01:01;;;;;;;4.00;3.60;;;;;;;;;;5115307;28;20204;-82
2023/06/18 02:03:28;;;;;;;3.42;3.13;;;;;;;;;;5115422;28;20235;-83
2023/06/18 02:05:56;;;;;;;3.42;3.22;;;;;;;;;;5115473;28;20279;-82
2023/06/18 02:08:23;;;;;;;3.40;3.10;;;;;;;;;;5114626;28;20226;-82
2023/06/18 02:10:51;;;;;;;3.90;3.50;;;;;;;;;;5118596;28;20291;-83
2023/06/18 02:13:20;;;;;;;3.33;3.03;;;;;;;;;;5119355;28;20224;-82
2023/06/18 02:15:47;;;;;;;3.92;3.60;;;;;;;;;;5119794;28;20243;-83
2023/06/18 02:18:15;;;;;;;4.40;3.58;;;;;;;;;;5119708;28;20253;-82
2023/06/18 02:20:44;;;;;;;4.47;3.78;;;;;;;;;;5120537;28;20637;-82
2023/06/18 02:23:11;;;;;;;3.70;3.40;;;;;;;;;;5118987;28;20215;-84
2023/06/18 02:25:39;;;;;;;3.78;3.47;;;;;;;;;;5119327;28;20282;-82
2023/06/18 02:28:07;;;;;;;5.43;4.03;;;;;;;;;;5118324;28;20249;-82
2023/06/18 02:30:36;;;;;;;4.38;4.07;;;;;;;;;;5118580;28;20204;-82
2023/06/18 02:33:06;;;;;;;4.30;4.00;;;;;;;;;;5119461;28;20286;-82
2023/06/18 02:35:34;;;;;;;6.03;4.63;;;;;;;;;;5119318;28;20416;-83
2023/06/18 02:38:02;;;;;;;5.10;4.15;;;;;;;;;;5118659;28;20200;-82
2023/06/18 02:40:29;;;;;;;4.25;3.95;;;;;;;;;;5118448;28;20196;-82
2023/06/18 02:42:57;;;;;;;3.97;3.67;;;;;;;;;;5117165;28;20239;-83
2023/06/18 02:45:26;;;;;;;4.60;4.20;;;;;;;;;;5119331;28;20227;-84
2023/06/18 02:47:55;;;;;;;4.03;3.72;;;;;;;;;;5117493;28;20750;-84
2023/06/18 02:50:22;;;;;;;3.90;3.60;;;;;;;;;;5117508;28;20311;-83
2023/06/18 02:52:50;;;;;;;4.07;3.78;;;;;;;;;;5117557;28;20286;-83
2023/06/18 02:55:17;;;;;;;4.47;3.10;;;;;;;;;;5116962;28;20314;-84
2023/06/18 02:57:46;;;;;;;3.97;3.58;;;;;;;;;;5117667;28;20199;-82
2023/06/18 03:00:14;;;;;;;3.35;3.08;;;;;;;;;;5118840;28;20584;-82
2023/06/18 03:02:43;;;;;;;3.50;3.20;;;;;;;;;;5118849;28;20202;-83
2023/06/18 03:05:12;;;;;;;3.38;3.08;;;;;;;;;;5117759;28;20202;-84
2023/06/18 03:07:39;;;;;;;4.70;4.28;;;;;;;;;;5117204;28;20292;-84
2023/06/18 03:10:08;;;;;;;3.83;3.53;;;;;;;;;;5117559;28;20227;-83
2023/06/18 03:12:37;;;;;;;4.28;3.95;;;;;;;;;;5117419;28;20207;-82
2023/06/18 03:15:06;;;;;;;3.70;3.40;;;;;;;;;;5117677;28;20314;-82
2023/06/18 03:17:34;;;;;;;4.07;3.78;;;;;;;;;;5117529;28;20218;-82
2023/06/18 03:20:03;;;;;;;4.47;4.07;;;;;;;;;;5117485;28;20627;-83
2023/06/18 03:22:32;;;;;;;4.63;4.22;;;;;;;;;;5080090;28;1069782;-82
2023/06/18 03:25:00;;;;;;;5.03;4.63;;;;;;;;;;5118054;28;20283;-82
2023/06/18 03:27:27;;;;;;;4.05;3.75;;;;;;;;;;5118117;28;20294;-83
2023/06/18 03:29:56;;;;;;;4.68;4.28;;;;;;;;;;5118461;28;20562;-83
2023/06/18 03:32:24;;;;;;;5.13;4.72;;;;;;;;;;5119024;28;20203;-83
2023/06/18 03:34:52;;;;;;;4.25;3.90;;;;;;;;;;5118713;28;20287;-82
2023/06/18 03:37:19;;;;;;;4.93;4.50;;;;;;;;;;5118117;28;20200;-82
2023/06/18 03:39:48;;;;;;;4.00;3.70;;;;;;;;;;5117219;28;20279;-82
2023/06/18 03:42:15;;;;;;;5.13;4.70;;;;;;;;;;5118438;28;20278;-83
2023/06/18 03:44:43;;;;;;;4.68;4.28;;;;;;;;;;5119201;28;20219;-84
2023/06/18 03:47:10;;;;;;;3.80;3.50;;;;;;;;;;5117999;28;20740;-83
2023/06/18 03:49:38;;;;;;;3.97;3.55;;;;;;;;;;5116703;28;20222;-83
2023/06/18 03:52:06;;;;;;;5.53;5.03;;;;;;;;;;5117306;28;20219;-82
2023/06/18 03:54:35;;;;;;;4.05;3.75;;;;;;;;;;5116551;28;20226;-83
2023/06/18 03:57:04;;;;;;;3.97;3.67;;;;;;;;;;5117344;28;20675;-81
2023/06/18 03:59:33;;;;;;;4.55;4.15;;;;;;;;;;5117104;28;20223;-84
2023/06/18 04:02:00;;;;;;;5.00;3.70;;;;;;;;;;5117478;28;20561;-83
2023/06/18 04:04:27;;;;;;;3.92;3.63;;;;;;;;;;5116538;28;20202;-83
2023/06/18 04:06:55;;;;;;;4.50;4.10;;;;;;;;;;5115909;28;20286;-82
2023/06/18 04:09:22;;;;;;;4.28;3.83;;;;;;;;;;5116526;28;20315;-83
2023/06/18 04:11:50;;;;;;;4.50;4.10;;;;;;;;;;5116801;28;20227;-83
2023/06/18 04:14:20;;;;;;;4.22;3.72;;;;;;;;;;5101962;28;20291;-83
2023/06/18 04:16:47;;;;;;;4.50;4.10;;;;;;;;;;5096728;28;20307;-82
2023/06/18 04:19:15;;;;;;;3.85;3.55;;;;;;;;;;5095806;28;20225;-82
2023/06/18 04:21:42;;;;;;;4.97;4.57;;;;;;;;;;5096243;28;20313;-82
2023/06/18 04:24:09;;;;;;;4.05;3.75;;;;;;;;;;5094748;28;20282;-82
2023/06/18 04:26:37;;;;;;;4.30;3.90;;;;;;;;;;5096745;28;20206;-82
2023/06/18 04:29:05;;;;;;;3.92;3.63;;;;;;;;;;5096751;28;20311;-82
2023/06/18 04:31:33;;;;;;;4.80;4.32;;;;;;;;;;5096329;28;20625;-82
2023/06/18 04:34:01;;;;;;;6.97;6.35;;;;;;;;;;5095562;28;20196;-83
2023/06/18 04:36:28;;;;;;;5.70;5.20;;;;;;;;;;5095970;28;20315;-83
2023/06/18 04:38:56;;;;;;;5.72;5.22;;;;;;;;;;5095436;28;20239;-82
2023/06/18 04:41:23;;;;;;;5.00;4.55;;;;;;;;;;5094095;28;20784;-83
2023/06/18 04:43:51;;;;;;;5.20;4.70;;;;;;;;;;5106037;28;20290;-82
2023/06/18 04:46:19;;;;;;;4.72;4.32;;;;;;;;;;5114504;28;20202;-82
2023/06/18 04:48:47;;;;;;;5.15;4.75;;;;;;;;;;5115049;28;20743;-82
2023/06/18 04:51:15;;;;;;;5.28;4.78;;;;;;;;;;5115097;28;20659;-82
2023/06/18 04:53:43;;;;;;;5.28;4.78;;;;;;;;;;5114291;28;20214;-81
2023/06/18 04:56:10;;;;;;;4.57;4.18;;;;;;;;;;5114140;28;20220;-82
2023/06/18 04:58:40;;;;;;;4.75;4.35;;;;;;;;;;5113871;28;20222;-82
2023/06/18 05:01:09;;;;;;;5.80;5.30;;;;;;;;;;5113947;28;20286;-83
2023/06/18 05:03:37;;;;;;;6.80;6.20;;;;;;;;;;5114789;28;20196;-83
2023/06/18 05:06:06;;;;;;;5.05;4.65;;;;;;;;;;5114598;28;20196;-82
2023/06/18 05:08:33;;;;;;;7.05;6.45;;;;;;;;;;5114128;28;20676;-83
2023/06/18 05:11:01;;;;;;;8.05;7.35;;;;;;;;;;5113983;28;20284;-83
2023/06/18 05:13:28;;;;;;;6.72;6.13;;;;;;;;;;5115500;28;20318;-82
2023/06/18 05:15:56;;;;;;;5.93;5.43;;;;;;;;;;5115771;28;20311;-82
2023/06/18 05:18:23;;;;;;;6.72;5.70;;;;;;;;;;5115223;28;20810;-82
2023/06/18 05:20:51;;;;;;;6.68;6.07;;;;;;;;;;5114995;28;20295;-83
2023/06/18 05:23:19;;;;;;;5.90;5.40;;;;;;;;;;5107997;28;20326;-82
2023/06/18 05:25:47;;;;;;;8.60;7.32;;;;;;;;;;5115047;28;20206;-82
2023/06/18 05:28:14;;;;;;;6.47;5.88;;;;;;;;;;5115196;28;20728;-82
2023/06/18 05:30:43;;;;;;;6.00;5.50;;;;;;;;;;5114429;28;20199;-82
2023/06/18 05:33:11;;;;;;;7.35;6.65;;;;;;;;;;5114988;28;20568;-82
2023/06/18 05:35:38;;;;;;;5.82;5.32;;;;;;;;;;5115603;28;20309;-82
2023/06/18 05:38:06;;;;;;;6.07;5.45;;;;;;;;;;5114795;28;20231;-83
2023/06/18 05:40:34;;;;;;;6.95;6.22;;;;;;;;;;5114660;28;20231;-81
2023/06/18 05:43:02;;;;;;;8.00;7.07;;;;;;;;;;5113450;28;20200;-82
2023/06/18 05:45:29;;;;;;;7.75;7.05;;;;;;;;;;5117062;28;20283;-82
2023/06/18 05:47:57;;;;;;;7.68;7.00;;;;;;;;;;5118020;28;20206;-81
2023/06/18 05:50:24;;;;;;;6.90;6.28;;;;;;;;;;5118126;28;20311;-83
2023/06/18 05:52:52;;;;;;;6.93;6.32;;;;;;;;;;5118251;28;20196;-81
2023/06/18 05:55:19;;;;;;;6.75;6.15;;;;;;;;;;5120017;28;20293;-81
2023/06/18 05:57:50;;;;;;;6.53;6.03;;;;;;;;;;5118555;28;20783;-82
2023/06/18 06:00:18;;;;;;;5.93;5.32;;;;;;;;;;5114147;28;20227;-82
2023/06/18 06:02:46;;;;;;;6.07;5.57;;;;;;;;;;5118966;28;20282;-82
2023/06/18 06:05:13;;;;;;;6.28;5.78;;;;;;;;;;5118956;28;20291;-81
2023/06/18 06:07:41;;;;;;;5.80;5.25;;;;;;;;;;5118162;28;20227;-82
2023/06/18 06:10:09;;;;;;;6.07;5.50;;;;;;;;;;5118956;28;20306;-82
2023/06/18 06:12:37;;;;;;;6.40;5.82;;;;;;;;;;5118825;28;20686;-82
2023/06/18 06:15:07;;;;;;;6.75;6.15;;;;;;;;;;5119833;28;20295;-83
2023/06/18 06:17:34;;;;;;;6.78;6.28;;;;;;;;;;5119144;28;20375;-82
2023/06/18 06:20:02;;;;;;;6.97;6.38;;;;;;;;;;5119894;28;20707;-83
2023/06/18 06:22:30;;;;;;;6.93;6.38;;;;;;;;;;5117894;28;20211;-82
2023/06/18 06:24:58;;;;;;;5.93;5.43;;;;;;;;;;5118050;28;20565;-82
2023/06/18 06:27:25;;;;;;;6.93;6.32;;;;;;;;;;5117532;28;20302;-83
2023/06/18 06:29:53;;;;;;;6.70;6.10;;;;;;;;;;5117812;28;20643;-82
2023/06/18 06:32:21;;;;;;;6.45;5.90;;;;;;;;;;5118346;28;20283;-82
2023/06/18 06:34:49;;;;;;;6.70;6.10;;;;;;;;;;5118628;28;20286;-82
2023/06/18 06:37:16;;;;;;;6.45;5.95;;;;;;;;;;5118305;28;20578;-82
2023/06/18 06:39:44;;;;;;;6.78;6.18;;;;;;;;;;5117972;28;20290;-82
2023/06/18 06:42:13;;;;;;;6.65;6.03;;;;;;;;;;5118933;28;20196;-82
2023/06/18 06:44:40;;;;;;;6.13;5.63;;;;;;;;;;5118074;28;20203;-83
2023/06/18 06:47:08;;;;;;;6.82;6.22;;;;;;;;;;5117649;28;20635;-84
2023/06/18 06:49:37;;;;;;;6.18;5.68;;;;;;;;;;5118826;28;20644;-82
2023/06/18 06:52:05;;;;;;;6.15;5.65;;;;;;;;;;5117169;28;20227;-82
2023/06/18 06:54:33;;;;;;;5.22;4.82;;;;;;;;;;5116919;28;20286;-83
2023/06/18 06:57:00;;;;;;;6.13;5.32;;;;;;;;;;5116239;28;20223;-82
2023/06/18 06:59:28;;;;;;;6.70;6.10;;;;;;;;;;5116740;28;20272;-82
2023/06/18 07:01:55;;;;;;;6.72;6.13;;;;;;;;;;5117125;28;20365;-82
2023/06/18 07:04:23;;;;;;;6.57;5.97;;;;;;;;;;5117096;28;20209;-81
2023/06/18 07:06:52;;;;;;;6.30;5.55;;;;;;;;;;5117048;28;20292;-83
2023/06/18 07:09:19;;;;;;;6.28;5.78;;;;;;;;;;5117598;28;20247;-84
2023/06/18 07:11:47;;;;;;;6.90;6.30;;;;;;;;;;5117617;28;20290;-84
2023/06/18 07:14:15;;;;;;;6.57;5.97;;;;;;;;;;5117189;28;20206;-82
2023/06/18 07:16:42;;;;;;;7.47;6.78;;;;;;;;;;5117764;28;20215;-82
2023/06/18 07:19:10;;;;;;;7.57;6.88;;;;;;;;;;5116733;28;20306;-82
2023/06/18 07:21:37;;;;;;;6.95;6.35;;;;;;;;;;5117402;28;20207;-82
2023/06/18 07:24:07;;;;;;;6.85;6.25;;;;;;;;;;5115701;28;20315;-82
2023/06/18 07:26:34;;;;;;;5.95;5.40;;;;;;;;;;5115895;28;20649;-83
2023/06/18 07:29:02;;;;;;;6.60;5.97;;;;;;;;;;5115184;28;20306;-83
2023/06/18 07:31:29;;;;;;;6.78;6.18;;;;;;;;;;5115440;28;20195;-83
2023/06/18 07:33:57;;;;;;;5.90;5.47;;;;;;;;;;5115909;28;20208;-82
2023/06/18 07:36:24;;;;;;;6.30;5.78;;;;;;;;;;5115846;28;20226;-82
2023/06/18 07:38:52;;;;;;;6.90;6.25;;;;;;;;;;5115846;28;20306;-82
2023/06/18 07:41:21;;;;;;;7.47;6.78;;;;;;;;;;5115230;28;20290;-82
2023/06/18 07:43:48;;;;;;;6.35;5.85;;;;;;;;;;5115668;28;20656;-82
2023/06/18 07:46:16;;;;;;;6.57;6.05;;;;;;;;;;5115435;28;20231;-83
2023/06/18 07:48:43;;;;;;;7.68;6.90;;;;;;;;;;5115257;28;20227;-84
2023/06/18 07:51:11;;;;;;;6.30;5.70;;;;;;;;;;5115065;28;20290;-83
2023/06/18 07:53:39;;;;;;;6.20;5.70;;;;;;;;;;5115558;28;20200;-83
2023/06/18 07:56:07;;;;;;;6.60;6.10;;;;;;;;;;5115496;28;20652;-84
2023/06/18 07:58:36;;;;;;;8.10;7.45;;;;;;;;;;5115768;28;20306;-83
2023/06/18 08:01:03;;;;;;;6.97;6.43;;;;;;;;;;5115200;28;20569;-83
2023/06/18 08:03:31;;;;;;;6.53;5.93;;;;;;;;;;5115582;28;20290;-83
2023/06/18 08:05:59;;;;;;;7.50;6.90;;;;;;;;;;5115845;28;20203;-83
2023/06/18 08:08:26;;;;;;;7.53;6.93;;;;;;;;;;5115429;28;20226;-82
2023/06/18 08:10:54;;;;;;;7.60;7.00;;;;;;;;;;5116034;28;20207;-83
2023/06/18 08:13:21;;;;;;;5.88;5.47;;;;;;;;;;5115997;28;20348;-84
2023/06/18 08:15:51;;;;;;;5.78;5.28;;;;;;;;;;5116397;28;20224;-83
2023/06/18 08:18:18;;;;;;;6.72;6.18;;;;;;;;;;5116154;28;20259;-83
2023/06/18 08:20:46;;;;;;;6.38;5.85;;;;;;;;;;5116355;28;20242;-83
2023/06/18 08:23:15;;;;;;;7.47;6.70;;;;;;;;;;5114467;28;20226;-82
2023/06/18 08:25:42;;;;;;;6.65;6.05;;;;;;;;;;5114290;28;20219;-84
2023/06/18 08:28:10;;;;;;;6.15;5.65;;;;;;;;;;5113725;28;20234;-83
2023/06/18 08:30:37;;;;;;;7.00;6.40;;;;;;;;;;5127624;22;20549;-81
2023/06/18 08:33:06;;;;;;;6.75;6.15;;;;;;;;;;5108916;28;20223;-82
2023/06/18 08:35:33;;;;;;;6.28;5.68;;;;;;;;;;5115363;28;20214;-83
2023/06/18 08:38:01;;;;;;;5.57;5.07;;;;;;;;;;5114989;28;20289;-82
2023/06/18 08:40:32;;;;;;;6.20;5.78;;;;;;;;;;5119535;28;20210;-82
2023/06/18 08:42:59;;;;;;;7.63;6.93;;;;;;;;;;5116033;28;20216;-83
2023/06/18 08:45:26;;;;;;;6.95;6.45;;;;;;;;;;5106860;28;21169;-83
2023/06/18 08:47:59;;;;;;;6.78;6.28;;;;;;;;;;5100393;28;20277;-84
2023/06/18 08:50:28;;;;;;;6.93;6.35;;;;;;;;;;5095170;28;20196;-82
2023/06/18 08:53:00;;;;;;;6.53;6.03;;;;;;;;;;5094543;28;20307;-84
2023/06/18 08:55:28;;;;;;;6.57;6.07;;;;;;;;;;5094694;28;20287;-85
2023/06/18 08:58:02;;;;;;;6.97;6.38;;;;;;;;;;5094122;28;20585;-82
2023/06/18 09:00:30;;;;;;;6.32;5.82;;;;;;;;;;5093993;28;20215;-78
2023/06/18 09:02:58;;;;;;;5.82;5.22;;;;;;;;;;5094193;28;20224;-82
2023/06/18 09:05:26;;;;;;;7.38;6.72;;;;;;;;;;5093209;28;20220;-82
2023/06/18 09:07:56;;;;;;;5.72;5.30;;;;;;;;;;5093110;28;20219;-81
2023/06/18 09:10:23;;;;;;;6.00;5.50;;;;;;;;;;5093855;28;20200;-81
2023/06/18 09:12:51;;;;;;;6.18;5.68;;;;;;;;;;5093390;28;20220;-81
2023/06/18 09:15:18;;;;;;;5.78;5.28;;;;;;;;;;5092997;28;20200;-78
2023/06/18 09:17:50;;;;;;;5.35;4.95;;;;;;;;;;5092837;28;20220;-84
2023/06/18 09:20:20;;;;;;;6.28;5.88;;;;;;;;;;5091871;28;20261;-81
2023/06/18 09:22:49;;;;;;;4.95;4.55;;;;;;;;;;5092641;28;20250;-82
2023/06/18 09:25:22;;;;;;;5.78;5.28;;;;;;;;;;5092593;28;20592;-79
2023/06/18 09:27:50;;;;;;;6.43;5.85;;;;;;;;;;5092753;28;20245;-81
2023/06/18 09:30:23;;;;;;;5.50;5.10;;;;;;;;;;5092482;28;20666;-82
2023/06/18 09:32:52;;;;;;;5.70;5.30;;;;;;;;;;5092655;28;20626;-80
2023/06/18 09:35:20;;;;;;;5.32;4.93;;;;;;;;;;5092713;28;20204;-81
2023/06/18 09:37:48;;;;;;;6.25;5.75;;;;;;;;;;5092378;28;20404;-79
2023/06/18 09:40:17;;;;;;;6.30;5.80;;;;;;;;;;5093000;28;20286;-79
2023/06/18 09:42:48;;;;;;;4.82;4.47;;;;;;;;;;5091787;28;20242;-81
2023/06/18 09:45:17;;;;;;;5.20;4.80;;;;;;;;;;5094735;28;20196;-81
2023/06/18 09:47:47;;;;;;;4.32;4.03;;;;;;;;;;5093784;28;20291;-81
2023/06/18 09:50:14;;;;;;;6.15;5.65;;;;;;;;;;5092461;28;20208;-81
2023/06/18 09:52:46;;;;;;;5.30;4.93;;;;;;;;;;5092433;28;20224;-80
2023/06/18 09:55:28;;;;;;;5.20;4.80;;;;;;;;;;5092038;28;20690;-80
2023/06/18 09:57:58;;;;;;;5.55;5.15;;;;;;;;;;5091266;28;20224;-80
2023/06/18 10:00:26;;;;;;;5.00;4.60;;;;;;;;;;5091946;28;20200;-80
2023/06/18 10:02:55;;;;;;;5.28;4.78;;;;;;;;;;5092868;28;20278;-80
2023/06/18 10:05:22;;;;;;;4.53;4.13;;;;;;;;;;5092486;28;20200;-80
2023/06/18 10:07:50;;;;;;;4.75;4.40;;;;;;;;;;5092395;28;20200;-81
2023/06/18 10:10:18;;;;;;;6.47;5.63;;;;;;;;;;5091647;28;20682;-80
2023/06/18 10:12:48;;;;;;;5.15;4.75;;;;;;;;;;5091956;28;20221;-81
2023/06/18 10:15:18;;;;;;;5.43;5.03;;;;;;;;;;5095456;28;20196;-80
2023/06/18 10:17:50;;;;;;;7.53;6.18;;;;;;;;;;5091427;28;20196;-81
2023/06/18 10:20:19;;;;;;;5.90;5.40;;;;;;;;;;5092059;28;20205;-82
2023/06/18 10:22:49;;;;;;;4.50;4.18;;;;;;;;;;5091908;28;20311;-80
2023/06/18 10:25:17;;;;;;;4.32;4.03;;;;;;;;;;5093021;28;20684;-82
2023/06/18 10:27:45;;;;;;;4.10;3.88;;;;;;;;;;5092537;28;20672;-81
2023/06/18 10:30:14;;;;;;;4.60;4.25;;;;;;;;;;5093245;28;20211;-81
2023/06/18 10:32:45;;;;;;;4.85;4.45;;;;;;;;;;5094780;28;20224;-82
2023/06/18 10:35:13;;;;;;;4.90;4.50;;;;;;;;;;5101383;28;20195;-81
2023/06/18 10:37:42;;;;;;;4.55;4.25;;;;;;;;;;5115300;28;20286;-81
2023/06/18 10:40:11;;;;;;;3.88;3.58;;;;;;;;;;5115714;28;20779;-81
2023/06/18 10:42:38;;;;;;;4.07;3.80;;;;;;;;;;5113358;28;20717;-82
2023/06/18 10:45:14;;;;;;;4.35;4.03;;;;;;;;;;5095987;28;20584;-80
2023/06/18 10:47:44;;;;;;;4.50;4.20;;;;;;;;;;5095788;28;20258;-80
2023/06/18 10:50:17;;;;;;;5.15;4.75;;;;;;;;;;5095929;28;20196;-80
2023/06/18 10:52:48;;;;;;;5.43;5.03;;;;;;;;;;5095388;28;20254;-79
2023/06/18 10:55:29;;;;;;;4.55;4.25;;;;;;;;;;5096468;28;20290;-80
2023/06/18 10:58:02;;;;;;;5.28;4.88;;;;;;;;;;5096936;28;20200;-82
2023/06/18 11:00:36;;;;;;;5.78;5.28;;;;;;;;;;5095296;28;20197;-81
2023/06/18 11:03:07;;;;;;;4.10;3.80;;;;;;;;;;5094271;28;20220;-83
2023/06/18 11:05:46;;;;;;;5.60;5.20;;;;;;;;;;5095510;28;20207;-83
2023/06/18 11:08:15;;;;;;;4.97;4.57;;;;;;;;;;5095014;28;20755;-81
2023/06/18 11:10:47;;;;;;;4.78;4.38;;;;;;;;;;5095495;28;20283;-80
2023/06/18 11:13:15;;;;;;;5.43;5.03;;;;;;;;;;5094535;28;20220;-82
2023/06/18 11:16:02;;;;;;;5.18;4.78;;;;;;;;;;5094864;28;20223;-78
2023/06/18 11:18:31;;;;;;;5.18;4.70;;;;;;;;;;5093847;28;20200;-80
2023/06/18 11:21:02;;;;;;;5.43;5.03;;;;;;;;;;5094063;28;20208;-81
2023/06/18 11:23:31;;;;;;;5.72;5.32;;;;;;;;;;5105269;28;20725;-83
2023/06/18 11:25:59;;;;;;;4.38;4.05;;;;;;;;;;5111865;28;20199;-83
2023/06/18 11:28:27;;;;;;;4.25;3.85;;;;;;;;;;5118157;28;20200;-83
2023/06/18 11:31:00;;;;;;;4.80;4.50;;;;;;;;;;5117964;28;20211;-83
2023/06/18 11:33:30;;;;;;;4.82;4.45;;;;;;;;;;5118331;28;20219;-84
2023/06/18 11:36:08;;;;;;;5.03;4.63;;;;;;;;;;5117124;28;20205;-82
2023/06/18 11:38:36;;;;;;;4.18;3.88;;;;;;;;;;5117433;28;20712;-83
2023/06/18 11:41:04;;;;;;;3.92;3.70;;;;;;;;;;5118086;28;20199;-84
2023/06/18 11:43:46;;;;;;;4.20;3.85;;;;;;;;;;5108109;28;20232;-84
2023/06/18 11:46:30;;;;;;;5.20;4.80;;;;;;;;;;5097685;28;20587;-85
2023/06/18 11:48:59;;;;;;;4.30;4.00;;;;;;;;;;5094296;28;20216;-82
2023/06/18 11:51:28;;;;;;;4.93;4.53;;;;;;;;;;5095552;28;20272;-85
2023/06/18 11:53:56;;;;;;;4.90;4.50;;;;;;;;;;5096257;28;20216;-84
2023/06/18 11:56:25;;;;;;;4.90;4.50;;;;;;;;;;5096886;28;20203;-80
2023/06/18 11:58:53;;;;;;;5.18;4.78;;;;;;;;;;5096212;28;20659;-83
2023/06/18 12:01:20;;;;;;;4.88;4.50;;;;;;;;;;5096668;28;20192;-83
2023/06/18 12:03:48;;;;;;;4.55;4.25;;;;;;;;;;5095310;28;20227;-83
2023/06/18 12:06:17;;;;;;;5.28;4.88;;;;;;;;;;5095265;28;20681;-81
2023/06/18 12:08:45;;;;;;;4.93;4.53;;;;;;;;;;5094205;28;20196;-81
2023/06/18 12:11:27;;;;;;;5.18;4.78;;;;;;;;;;5096077;28;20624;-84
2023/06/18 12:13:57;;;;;;;4.28;3.97;;;;;;;;;;5094833;28;20356;-83
2023/06/18 12:16:29;;;;;;;4.15;3.95;;;;;;;;;;5095009;28;20204;-83
2023/06/18 12:19:01;;;;;;;4.90;4.50;;;;;;;;;;5095013;28;20205;-83
2023/06/18 12:21:30;;;;;;;4.72;4.40;;;;;;;;;;5095874;28;20596;-85
2023/06/18 12:23:57;;;;;;;5.65;5.15;;;;;;;;;;5117907;22;20703;-81
2023/06/18 12:26:25;;;;;;;4.40;4.10;;;;;;;;;;5094272;28;20265;-82
2023/06/18 12:28:53;;;;;;;4.30;4.00;;;;;;;;;;5094605;28;20214;-81
2023/06/18 12:31:21;;;;;;;4.78;4.30;;;;;;;;;;5095335;28;20220;-81
2023/06/18 12:33:48;;;;;;;4.45;4.18;;;;;;;;;;5093811;28;20252;-81
2023/06/18 12:36:16;;;;;;;4.00;3.80;;;;;;;;;;5095568;28;20575;-81
2023/06/18 12:38:46;;;;;;;5.68;5.18;;;;;;;;;;5095140;28;20682;-82
2023/06/18 12:41:22;;;;;;;4.35;4.05;;;;;;;;;;5095918;28;20184;-81
2023/06/18 12:43:50;;;;;;;4.55;4.22;;;;;;;;;;5094999;28;20219;-81
2023/06/18 12:46:25;;;;;;;4.97;4.68;;;;;;;;;;5094356;28;20671;-81
2023/06/18 12:48:54;;;;;;;5.25;4.80;;;;;;;;;;5094329;28;20223;-82
2023/06/18 12:51:22;;;;;;;4.85;4.53;;;;;;;;;;5095495;28;20220;-81
2023/06/18 12:53:53;;;;;;;5.10;4.72;;;;;;;;;;5093846;28;20431;-80
2023/06/18 12:56:22;;;;;;;4.82;4.43;;;;;;;;;;5094248;28;20283;-82
2023/06/18 12:58:51;;;;;;;5.40;5.03;;;;;;;;;;5094425;28;20698;-80
2023/06/18 13:01:20;;;;;;;4.65;4.22;;;;;;;;;;5095766;28;20204;-80
2023/06/18 13:03:52;;;;;;;4.63;4.25;;;;;;;;;;5094909;28;20740;-79
2023/06/18 13:06:20;;;;;;;4.68;4.28;;;;;;;;;;5096135;28;20644;-81
2023/06/18 13:08:51;;;;;;;4.28;3.97;;;;;;;;;;5095505;28;20208;-80
2023/06/18 13:11:18;;;;;;;4.95;4.63;;;;;;;;;;5095781;28;20321;-80
2023/06/18 13:13:46;;;;;;;4.65;4.35;;;;;;;;;;5086325;28;20233;-80
2023/06/18 13:16:13;;;;;;;4.82;4.43;;;;;;;;;;5092814;28;20694;-81
2023/06/18 13:18:41;;;;;;;4.35;4.03;;;;;;;;;;5094650;28;20208;-80
2023/06/18 13:21:08;;;;;;;3.88;3.67;;;;;;;;;;5094106;28;20202;-80
2023/06/18 13:23:35;;;;;;;5.15;4.75;;;;;;;;;;5093729;28;20242;-80
2023/06/18 13:26:04;;;;;;;4.55;4.25;;;;;;;;;;5093981;28;20200;-80
2023/06/18 13:28:32;;;;;;;5.75;5.25;;;;;;;;;;5093344;28;20204;-80
2023/06/18 13:30:59;;;;;;;3.90;3.60;;;;;;;;;;5093232;28;20238;-80
2023/06/18 13:33:28;;;;;;;4.38;4.05;;;;;;;;;;5094401;28;20590;-80
2023/06/18 13:35:55;;;;;;;4.03;3.72;;;;;;;;;;5094124;28;20196;-81
2023/06/18 13:38:23;;;;;;;3.83;3.58;;;;;;;;;;5092786;28;20204;-80
2023/06/18 13:40:51;;;;;;;3.30;3.10;;;;;;;;;;5092494;28;20196;-81
2023/06/18 13:43:20;;;;;;;4.05;3.75;;;;;;;;;;5093174;28;20643;-81
2023/06/18 13:45:47;;;;;;;3.75;3.45;;;;;;;;;;5094185;28;20206;-81
2023/06/18 13:48:15;;;;;;;3.63;3.40;;;;;;;;;;5092995;28;20206;-80
2023/06/18 13:50:43;;;;;;;3.40;3.20;;;;;;;;;;5092591;28;20220;-80
2023/06/18 13:53:10;;;;;;;3.92;3.65;;;;;;;;;;5093239;28;20226;-81
2023/06/18 13:55:38;;;;;;;4.47;4.18;;;;;;;;;;5092619;28;20613;-80
2023/06/18 13:58:05;;;;;;;4.00;3.70;;;;;;;;;;5092870;28;20349;-81
2023/06/18 14:00:34;;;;;;;4.15;3.85;;;;;;;;;;5093480;28;20234;-80
2023/06/18 14:03:04;;;;;;;4.13;3.83;;;;;;;;;;5093659;28;20208;-80
2023/06/18 14:05:35;;;;;;;3.40;3.20;;;;;;;;;;5094915;28;20268;-81
2023/06/18 14:08:04;;;;;;;4.25;3.95;;;;;;;;;;5093768;28;20232;-80
2023/06/18 14:10:31;;;;;;;4.53;4.15;;;;;;;;;;5097485;28;20227;-80
2023/06/18 14:12:59;;;;;;;3.40;3.20;;;;;;;;;;5096749;28;20313;-80
2023/06/18 14:15:27;;;;;;;4.68;4.18;;;;;;;;;;5097287;28;20205;-80
2023/06/18 14:17:55;;;;;;;4.60;4.30;;;;;;;;;;5096496;28;20763;-80
2023/06/18 14:20:23;;;;;;;4.93;4.55;;;;;;;;;;5097902;28;20210;-81
2023/06/18 14:22:51;;;;;;;4.60;4.30;;;;;;;;;;5097262;28;20264;-80
2023/06/18 14:25:19;;;;;;;5.90;5.40;;;;;;;;;;5096526;28;20207;-81
2023/06/18 14:27:48;;;;;;;4.75;4.38;;;;;;;;;;5096337;28;20203;-80
2023/06/18 14:30:17;;;;;;;4.60;4.20;;;;;;;;;;5096813;28;20204;-80
2023/06/18 14:32:44;;;;;;;5.40;5.00;;;;;;;;;;5096856;28;20216;-80
2023/06/18 14:35:13;;;;;;;5.43;5.03;;;;;;;;;;5095903;28;20303;-80
2023/06/18 14:37:42;;;;;;;5.07;4.65;;;;;;;;;;5096040;28;20204;-79
2023/06/18 14:40:11;;;;;;;4.38;4.07;;;;;;;;;;5096137;28;20755;-79
2023/06/18 14:42:41;;;;;;;5.18;4.78;;;;;;;;;;5094651;28;20256;-79
2023/06/18 14:45:10;;;;;;;4.18;3.88;;;;;;;;;;5089664;28;20201;-79
2023/06/18 14:47:41;;;;;;;4.50;4.18;;;;;;;;;;5095214;28;20232;-79
2023/06/18 14:50:14;;;;;;;3.63;3.33;;;;;;;;;;5095782;28;20204;-80
2023/06/18 14:52:41;;;;;;;4.55;4.15;;;;;;;;;;5095608;28;20277;-79